sensor_id;sensor_type;location;lat;lon;timestamp;P1;P2;P0
66149;PMS5003;52952;50.904;20.648;2024-03-23T01:00:18;42;34;20
66149;PMS5003;52952;50.904;20.648;2024-03-23T01:10:02;32;28;17
66149;PMS5003;52952;50.904;20.648;2024-03-23T01:20:18;32;28;17
66149;PMS5003;52952;50.904;20.648;2024-03-23T01:30:03;32;28;17
66149;PMS5003;52952;50.904;20.648;2024-03-23T01:40:21;40;34;21
66149;PMS5003;52952;50.904;20.648;2024-03-23T01:50:03;40;34;21
66149;PMS5003;52952;50.904;20.648;2024-03-23T02:00:20;40;34;21
66149;PMS5003;52952;50.904;20.648;2024-03-23T02:10:15;38;34;19
66149;PMS5003;52952;50.904;20.648;2024-03-23T02:20:16;38;34;19
66149;PMS5003;52952;50.904;20.648;2024-03-23T02:30:13;38;34;19
66149;PMS5003;52952;50.904;20.648;2024-03-23T02:40:12;32;31;17
66149;PMS5003;52952;50.904;20.648;2024-03-23T02:50:02;32;31;17
66149;PMS5003;52952;50.904;20.648;2024-03-23T03:00:19;32;31;17
66149;PMS5003;52952;50.904;20.648;2024-03-23T03:10:16;34;31;20
66149;PMS5003;52952;50.904;20.648;2024-03-23T03:20:16;34;31;20
66149;PMS5003;52952;50.904;20.648;2024-03-23T03:30:19;34;31;20
66149;PMS5003;52952;50.904;20.648;2024-03-23T03:40:02;41;33;20
66149;PMS5003;52952;50.904;20.648;2024-03-23T03:50:05;41;33;20
66149;PMS5003;52952;50.904;20.648;2024-03-23T04:00:12;41;33;20
66149;PMS5003;52952;50.904;20.648;2024-03-23T04:10:17;42;33;21
66149;PMS5003;52952;50.904;20.648;2024-03-23T04:20:11;42;33;21
66149;PMS5003;52952;50.904;20.648;2024-03-23T04:30:11;42;33;21
66149;PMS5003;52952;50.904;20.648;2024-03-23T04:40:05;43;34;21
66149;PMS5003;52952;50.904;20.648;2024-03-23T04:50:05;43;34;21
66149;PMS5003;52952;50.904;20.648;2024-03-23T05:00:17;43;34;21
66149;PMS5003;52952;50.904;20.648;2024-03-23T05:10:17;52;41;24
66149;PMS5003;52952;50.904;20.648;2024-03-23T05:20:22;52;41;24
66149;PMS5003;52952;50.904;20.648;2024-03-23T05:30:17;52;41;24
66149;PMS5003;52952;50.904;20.648;2024-03-23T05:40:07;43;35;20
66149;PMS5003;52952;50.904;20.648;2024-03-23T05:50:04;43;35;20
66149;PMS5003;52952;50.904;20.648;2024-03-23T06:00:02;43;35;20
66149;PMS5003;52952;50.904;20.648;2024-03-23T06:10:04;52;40;24
66149;PMS5003;52952;50.904;20.648;2024-03-23T06:20:17;52;40;24
66149;PMS5003;52952;50.904;20.648;2024-03-23T06:30:02;52;40;24
66149;PMS5003;52952;50.904;20.648;2024-03-23T06:40:10;50;41;24
66149;PMS5003;52952;50.904;20.648;2024-03-23T06:50:04;50;41;24
66149;PMS5003;52952;50.904;20.648;2024-03-23T07:00:10;50;41;24
66149;PMS5003;52952;50.904;20.648;2024-03-23T07:20:13;49;40;26
66149;PMS5003;52952;50.904;20.648;2024-03-23T07:30:09;49;40;26
66149;PMS5003;52952;50.904;20.648;2024-03-23T07:40:16;56;45;28
66149;PMS5003;52952;50.904;20.648;2024-03-23T07:50:10;56;45;28
66149;PMS5003;52952;50.904;20.648;2024-03-23T08:00:02;56;45;28
66149;PMS5003;52952;50.904;20.648;2024-03-23T08:10:09;38;33;19
66149;PMS5003;52952;50.904;20.648;2024-03-23T08:20:17;38;33;19
66149;PMS5003;52952;50.904;20.648;2024-03-23T08:30:19;38;33;19
66149;PMS5003;52952;50.904;20.648;2024-03-23T08:40:02;44;36;20
66149;PMS5003;52952;50.904;20.648;2024-03-23T08:50:09;44;36;20
66149;PMS5003;52952;50.904;20.648;2024-03-23T09:00:20;44;36;20
66149;PMS5003;52952;50.904;20.648;2024-03-23T09:10:11;40;35;21
66149;PMS5003;52952;50.904;20.648;2024-03-23T09:20:05;40;35;21
66149;PMS5003;52952;50.904;20.648;2024-03-23T09:30:14;40;35;21
66149;PMS5003;52952;50.904;20.648;2024-03-23T09:40:18;32;30;20
66149;PMS5003;52952;50.904;20.648;2024-03-23T09:50:13;32;30;20
66149;PMS5003;52952;50.904;20.648;2024-03-23T10:00:01;32;30;20
66149;PMS5003;52952;50.904;20.648;2024-03-23T10:10:21;32;30;18
66149;PMS5003;52952;50.904;20.648;2024-03-23T10:20:23;32;30;18
66149;PMS5003;52952;50.904;20.648;2024-03-23T10:30:29;32;30;18
66149;PMS5003;52952;50.904;20.648;2024-03-23T10:50:13;32;29;19
66149;PMS5003;52952;50.904;20.648;2024-03-23T11:00:22;32;29;19
66149;PMS5003;52952;50.904;20.648;2024-03-23T11:20:02;30;28;16
66149;PMS5003;52952;50.904;20.648;2024-03-23T11:30:28;30;28;16
66149;PMS5003;52952;50.904;20.648;2024-03-23T11:40:21;25;25;17
66149;PMS5003;52952;50.904;20.648;2024-03-23T11:50:04;25;25;17
66149;PMS5003;52952;50.904;20.648;2024-03-23T12:00:27;25;25;17
66149;PMS5003;52952;50.904;20.648;2024-03-23T12:10:07;28;28;18
66149;PMS5003;52952;50.904;20.648;2024-03-23T12:20:11;28;28;18
66149;PMS5003;52952;50.904;20.648;2024-03-23T12:30:15;28;28;18
66149;PMS5003;52952;50.904;20.648;2024-03-23T12:40:12;26;25;16
66149;PMS5003;52952;50.904;20.648;2024-03-23T12:50:12;26;25;16
66149;PMS5003;52952;50.904;20.648;2024-03-23T13:00:06;26;25;16
66149;PMS5003;52952;50.904;20.648;2024-03-23T13:10:12;26;26;17
66149;PMS5003;52952;50.904;20.648;2024-03-23T13:20:02;26;26;17
66149;PMS5003;52952;50.904;20.648;2024-03-23T13:30:12;26;26;17
66149;PMS5003;52952;50.904;20.648;2024-03-23T13:40:15;25;22;13
66149;PMS5003;52952;50.904;20.648;2024-03-23T13:50:04;25;22;13
66149;PMS5003;52952;50.904;20.648;2024-03-23T14:00:09;25;22;13
66149;PMS5003;52952;50.904;20.648;2024-03-23T14:10:15;19;19;15
66149;PMS5003;52952;50.904;20.648;2024-03-23T14:20:18;19;19;15
66149;PMS5003;52952;50.904;20.648;2024-03-23T14:30:07;19;19;15
66149;PMS5003;52952;50.904;20.648;2024-03-23T14:40:14;31;29;21
66149;PMS5003;52952;50.904;20.648;2024-03-23T14:50:04;31;29;21
66149;PMS5003;52952;50.904;20.648;2024-03-23T15:00:16;31;29;21
66149;PMS5003;52952;50.904;20.648;2024-03-23T15:20:03;27;25;18
66149;PMS5003;52952;50.904;20.648;2024-03-23T15:30:06;27;25;18
66149;PMS5003;52952;50.904;20.648;2024-03-23T15:50:13;13;12;9
66149;PMS5003;52952;50.904;20.648;2024-03-23T16:00:17;13;12;9
66149;PMS5003;52952;50.904;20.648;2024-03-23T16:10:14;13;12;9
66149;PMS5003;52952;50.904;20.648;2024-03-23T16:20:15;8;8;6
66149;PMS5003;52952;50.904;20.648;2024-03-23T16:30:16;8;8;6
66149;PMS5003;52952;50.904;20.648;2024-03-23T16:40:13;8;8;6
66149;PMS5003;52952;50.904;20.648;2024-03-23T16:50:07;22;20;15
66149;PMS5003;52952;50.904;20.648;2024-03-23T17:00:15;22;20;15
66149;PMS5003;52952;50.904;20.648;2024-03-23T17:10:07;22;20;15
66149;PMS5003;52952;50.904;20.648;2024-03-23T17:20:05;11;11;8
66149;PMS5003;52952;50.904;20.648;2024-03-23T17:30:12;11;11;8
66149;PMS5003;52952;50.904;20.648;2024-03-23T17:40:13;11;11;8
66149;PMS5003;52952;50.904;20.648;2024-03-23T18:00:12;20;18;13
66149;PMS5003;52952;50.904;20.648;2024-03-23T18:10:15;20;18;13
66149;PMS5003;52952;50.904;20.648;2024-03-23T18:20:03;10;9;7
66149;PMS5003;52952;50.904;20.648;2024-03-23T18:30:06;10;9;7
66149;PMS5003;52952;50.904;20.648;2024-03-23T18:40:04;10;9;7
66149;PMS5003;52952;50.904;20.648;2024-03-23T18:50:10;9;8;7
66149;PMS5003;52952;50.904;20.648;2024-03-23T19:00:17;9;8;7
66149;PMS5003;52952;50.904;20.648;2024-03-23T19:10:07;9;8;7
66149;PMS5003;52952;50.904;20.648;2024-03-23T19:20:01;14;14;9
66149;PMS5003;52952;50.904;20.648;2024-03-23T19:30:02;14;14;9
66149;PMS5003;52952;50.904;20.648;2024-03-23T19:40:13;14;14;9
66149;PMS5003;52952;50.904;20.648;2024-03-23T19:50:10;11;10;8
66149;PMS5003;52952;50.904;20.648;2024-03-23T20:00:18;11;10;8
66149;PMS5003;52952;50.904;20.648;2024-03-23T20:10:02;11;10;8
66149;PMS5003;52952;50.904;20.648;2024-03-23T20:20:18;10;9;7
66149;PMS5003;52952;50.904;20.648;2024-03-23T20:30:11;10;9;7
66149;PMS5003;52952;50.904;20.648;2024-03-23T20:40:16;10;9;7
66149;PMS5003;52952;50.904;20.648;2024-03-23T20:50:18;16;15;9
66149;PMS5003;52952;50.904;20.648;2024-03-23T21:00:18;16;15;9
66149;PMS5003;52952;50.904;20.648;2024-03-23T21:10:10;16;15;9
66149;PMS5003;52952;50.904;20.648;2024-03-23T21:20:14;13;12;7
66149;PMS5003;52952;50.904;20.648;2024-03-23T21:30:02;13;12;7
66149;PMS5003;52952;50.904;20.648;2024-03-23T21:40:15;13;12;7
66149;PMS5003;52952;50.904;20.648;2024-03-23T21:50:11;7;7;5
66149;PMS5003;52952;50.904;20.648;2024-03-23T22:00:21;7;7;5
66149;PMS5003;52952;50.904;20.648;2024-03-23T22:10:03;7;7;5
66149;PMS5003;52952;50.904;20.648;2024-03-23T22:20:01;12;11;8
66149;PMS5003;52952;50.904;20.648;2024-03-23T22:30:01;12;11;8
66149;PMS5003;52952;50.904;20.648;2024-03-23T22:40:14;12;11;8
66149;PMS5003;52952;50.904;20.648;2024-03-23T22:50:05;11;11;7
66149;PMS5003;52952;50.904;20.648;2024-03-23T23:00:22;11;11;7
66149;PMS5003;52952;50.904;20.648;2024-03-23T23:10:12;14;13;10
66149;PMS5003;52952;50.904;20.648;2024-03-23T23:20:04;14;13;10
66149;PMS5003;52952;50.904;20.648;2024-03-23T23:30:12;14;13;10
66149;PMS5003;52952;50.904;20.648;2024-03-23T23:40:14;16;13;10
66149;PMS5003;52952;50.904;20.648;2024-03-23T23:50:02;16;13;10
